JJN weather

Quanzhou Jinjiang International Airport
Quanzhou, Fujian Province, China

Public forecast

Using degrees Celsius for public forecast. Weather courtesy of forecast.io.

Current aviation weather report (METAR) for Quanzhou Jinjiang International Airport

Report is more than 6 hours old.

Retrieved 2019/11/02 09:00 UTC (4 months ago):

ZSQZ 020900Z 07005MPS CAVOK 24/17 Q1014 NOSIG

Closest aviation forecast (TAF) to Quanzhou Jinjiang International Airport

Forecast is more than 12 hours old.

Closest forecast is Kinmen Airport, 25.5 nm (47.2 km) SSW. Retrieved 2020/01/15 06:03 UTC (1 month ago):

TAF TAF RCBS 150500Z 1506/1606 03013KT 7000 FEW012 BKN032 TEMPO 1506/1510 08015KT 5000 HZ TEMPO 1510/1514 05018KT SCT008 BKN017 BKN035 BECMG 1518/1520 02005KT TEMPO 1520/1602 4000 BR SCT007 BKN016 BKN030 BECMG 1602/1604 12005KT